Time;durP1;ratioP1;P1;durP2;ratioP2;P2;SDS_P1;SDS_P2;PMS_P1;PMS_P2;Temp;Humidity;BMP_temperature;BMP_pressure;BME280_temperature;BME280_humidity;BME280_pressure;Samples;Min_cycle;Max_cycle;Signal;HPM_P1;HPM_P2
2021/08/15 00:01:25;;;;;;;0.80;0.70;;;22.30;56.30;;;;;;5084622;28;20044;-36
2021/08/15 00:03:52;;;;;;;1.13;1.02;;;22.30;56.30;;;;;;5084496;28;20098;-36
2021/08/15 00:06:18;;;;;;;1.50;0.90;;;22.30;56.40;;;;;;5084067;28;20040;-35
2021/08/15 00:08:47;;;;;;;0.93;0.90;;;22.30;56.50;;;;;;5084144;28;20039;-36
2021/08/15 00:11:13;;;;;;;0.90;0.90;;;22.20;56.50;;;;;;5084245;28;20056;-35
2021/08/15 00:13:39;;;;;;;0.90;0.90;;;22.20;56.30;;;;;;5069925;28;20021;-36
2021/08/15 00:16:05;;;;;;;0.82;0.73;;;22.20;56.50;;;;;;5063632;28;20017;-36
2021/08/15 00:18:31;;;;;;;1.00;0.90;;;22.10;56.50;;;;;;5064363;28;20029;-35
2021/08/15 00:20:57;;;;;;;1.00;0.90;;;22.10;56.60;;;;;;5063959;28;20091;-36
2021/08/15 00:23:24;;;;;;;0.70;0.70;;;22.10;56.60;;;;;;5063753;28;20418;-35
2021/08/15 00:25:50;;;;;;;1.20;1.00;;;22.10;56.50;;;;;;5056189;28;20043;-35
2021/08/15 00:28:16;;;;;;;1.13;0.80;;;22.00;56.30;;;;;;5083795;28;20553;-36
2021/08/15 00:30:42;;;;;;;1.00;0.90;;;22.00;56.40;;;;;;5083983;28;20029;-35
2021/08/15 00:33:09;;;;;;;0.70;0.65;;;22.00;56.40;;;;;;5083918;28;20032;-36
2021/08/15 00:35:35;;;;;;;1.02;0.77;;;22.00;56.30;;;;;;5083837;28;20378;-35
2021/08/15 00:38:01;;;;;;;0.73;0.73;;;22.00;56.40;;;;;;5083391;28;20481;-36
2021/08/15 00:40:27;;;;;;;0.88;0.80;;;21.90;56.40;;;;;;5065835;28;20037;-36
2021/08/15 00:42:53;;;;;;;0.70;0.70;;;21.90;56.50;;;;;;5053371;28;20025;-36
2021/08/15 00:45:19;;;;;;;0.90;0.90;;;21.90;56.50;;;;;;5083643;28;20110;-35
2021/08/15 00:47:45;;;;;;;0.80;0.80;;;21.90;56.60;;;;;;5083075;28;20053;-36
2021/08/15 00:50:12;;;;;;;0.88;0.88;;;21.80;56.50;;;;;;5083505;28;20040;-36
2021/08/15 00:52:38;;;;;;;0.70;0.70;;;21.80;56.50;;;;;;5083372;28;20033;-36
2021/08/15 00:55:08;;;;;;;0.80;0.80;;;21.80;56.60;;;;;;5083254;28;20033;-36
2021/08/15 00:57:35;;;;;;;1.00;0.90;;;21.80;56.70;;;;;;5083156;28;20726;-35
2021/08/15 01:00:07;;;;;;;1.33;0.70;;;21.80;56.60;;;;;;5083387;28;20040;-35
2021/08/15 01:02:40;;;;;;;1.08;0.90;;;21.70;56.60;;;;;;5083299;28;20025;-35
2021/08/15 01:05:08;;;;;;;1.30;0.90;;;21.70;56.60;;;;;;5065696;28;20028;-35
2021/08/15 01:07:34;;;;;;;;;;;21.70;57.00;;;;;;5083433;28;20029;-35
2021/08/15 01:10:01;;;;;;;0.93;0.82;;;21.70;57.20;;;;;;5082925;28;20003;-36
2021/08/15 01:12:27;;;;;;;1.00;0.90;;;21.60;56.70;;;;;;5082838;28;20031;-35
2021/08/15 01:14:57;;;;;;;0.80;0.60;;;21.60;56.70;;;;;;5048682;28;20097;-35
2021/08/15 01:17:23;;;;;;;0.95;0.85;;;21.60;56.70;;;;;;5082755;28;20029;-36
2021/08/15 01:19:53;;;;;;;1.00;0.80;;;21.60;56.80;;;;;;5082802;28;20099;-39
2021/08/15 01:22:26;;;;;;;1.00;0.90;;;21.50;56.80;;;;;;5083165;28;20488;-35
2021/08/15 01:24:53;;;;;;;0.85;0.80;;;21.50;56.70;;;;;;5082607;28;20032;-35
2021/08/15 01:27:20;;;;;;;0.73;0.73;;;21.50;56.90;;;;;;5082619;28;20040;-35
2021/08/15 01:29:47;;;;;;;0.97;0.90;;;21.50;56.70;;;;;;5082235;28;20090;-35
2021/08/15 01:32:22;;;;;;;0.90;0.80;;;21.40;57.10;;;;;;5082783;28;20121;-36
2021/08/15 01:34:48;;;;;;;0.80;0.80;;;21.40;56.90;;;;;;5065536;28;20089;-35
2021/08/15 01:37:14;;;;;;;0.90;0.80;;;21.40;57.10;;;;;;5062292;28;20021;-36
2021/08/15 01:39:43;;;;;;;1.00;0.80;;;21.40;57.00;;;;;;5065313;28;20031;-35
2021/08/15 01:42:10;;;;;;;1.00;0.80;;;21.40;56.90;;;;;;5046585;28;20052;-35
2021/08/15 01:44:36;;;;;;;0.75;0.75;;;21.30;57.00;;;;;;5082491;28;20035;-35
2021/08/15 01:47:02;;;;;;;0.82;0.80;;;21.30;56.90;;;;;;5082267;28;20172;-35
2021/08/15 01:49:32;;;;;;;0.80;0.80;;;21.30;56.90;;;;;;5082487;28;20111;-35
2021/08/15 01:51:58;;;;;;;0.63;0.63;;;21.20;56.80;;;;;;5082458;28;20100;-35
2021/08/15 01:54:24;;;;;;;0.55;0.50;;;21.20;56.80;;;;;;5082266;28;20028;-35
2021/08/15 01:56:50;;;;;;;0.70;0.70;;;21.20;57.00;;;;;;5082406;28;20092;-36
2021/08/15 01:59:16;;;;;;;0.73;0.60;;;21.10;56.90;;;;;;5082283;28;20071;-37
2021/08/15 02:01:43;;;;;;;1.67;0.60;;;21.20;57.50;;;;;;5082420;28;20032;-36
2021/08/15 02:04:09;;;;;;;0.60;0.60;;;21.10;57.50;;;;;;5082507;28;20031;-35
2021/08/15 02:06:35;;;;;;;0.85;0.70;;;21.10;58.20;;;;;;5082297;28;20066;-35
2021/08/15 02:09:01;;;;;;;0.70;0.70;;;21.20;58.20;;;;;;5081859;28;20032;-35
2021/08/15 02:11:27;;;;;;;1.10;0.80;;;21.20;58.40;;;;;;5082011;28;20051;-36
2021/08/15 02:13:53;;;;;;;0.93;0.80;;;21.20;58.70;;;;;;5082370;28;20032;-35
2021/08/15 02:16:19;;;;;;;0.77;0.70;;;21.20;58.60;;;;;;5082303;28;20024;-35
2021/08/15 02:18:46;;;;;;;0.82;0.82;;;21.30;58.70;;;;;;5082191;28;20100;-35
2021/08/15 02:21:12;;;;;;;1.02;0.90;;;21.30;58.90;;;;;;5071214;28;20025;-35
2021/08/15 02:23:38;;;;;;;0.93;0.80;;;21.20;58.90;;;;;;5062047;28;20039;-36
2021/08/15 02:26:04;;;;;;;0.75;0.75;;;21.30;59.10;;;;;;5061876;28;20041;-36
2021/08/15 02:28:30;;;;;;;0.57;0.57;;;21.30;59.10;;;;;;5061881;28;20037;-35
2021/08/15 02:30:56;;;;;;;0.60;0.60;;;21.30;59.10;;;;;;5062167;28;20097;-35
2021/08/15 02:33:23;;;;;;;1.08;0.82;;;21.30;59.30;;;;;;5044172;28;20103;-35
2021/08/15 02:35:49;;;;;;;0.95;0.70;;;21.30;59.40;;;;;;5061936;28;20021;-36
2021/08/15 02:38:15;;;;;;;0.73;0.73;;;21.40;59.40;;;;;;5061627;28;20040;-36
2021/08/15 02:40:41;;;;;;;0.68;0.68;;;21.40;59.50;;;;;;5083964;28;20059;-36
2021/08/15 02:43:07;;;;;;;0.73;0.73;;;21.40;59.50;;;;;;5085847;28;20025;-36
2021/08/15 02:45:33;;;;;;;0.70;0.70;;;21.40;59.60;;;;;;5085897;28;20029;-36
2021/08/15 02:48:00;;;;;;;0.52;0.52;;;21.40;59.70;;;;;;5067457;28;20068;-36
2021/08/15 02:50:26;;;;;;;0.80;0.73;;;21.50;59.80;;;;;;5085836;28;20029;-36
2021/08/15 02:52:52;;;;;;;0.85;0.73;;;21.50;59.90;;;;;;5085585;28;20040;-35
2021/08/15 02:55:18;;;;;;;0.68;0.68;;;21.50;60.30;;;;;;5085465;28;20063;-36
2021/08/15 02:57:45;;;;;;;0.70;0.70;;;21.50;60.30;;;;;;5085788;28;20031;-35
2021/08/15 03:00:11;;;;;;;1.02;0.93;;;21.50;60.10;;;;;;5085388;28;20025;-36
2021/08/15 03:02:38;;;;;;;0.80;0.80;;;21.60;60.30;;;;;;5085732;28;20024;-36
2021/08/15 03:05:05;;;;;;;0.80;0.80;;;21.60;60.20;;;;;;5085430;28;20078;-35
2021/08/15 03:07:31;;;;;;;;;;;21.60;60.20;;;;;;5085666;28;20036;-35
2021/08/15 03:09:57;;;;;;;0.80;0.65;;;21.60;60.20;;;;;;5085016;28;19915;-36
2021/08/15 03:12:23;;;;;;;0.70;0.60;;;21.60;60.20;;;;;;5085255;28;20068;-36
2021/08/15 03:14:49;;;;;;;0.85;0.82;;;21.60;60.30;;;;;;5085391;28;20052;-36
2021/08/15 03:17:15;;;;;;;1.00;0.90;;;21.70;60.40;;;;;;5085236;28;20035;-36
2021/08/15 03:19:42;;;;;;;1.10;1.00;;;21.70;60.30;;;;;;5085200;28;20024;-36
2021/08/15 03:22:08;;;;;;;0.88;0.88;;;21.70;60.30;;;;;;5085115;28;20033;-36
2021/08/15 03:24:34;;;;;;;0.88;0.75;;;21.70;60.30;;;;;;5084990;28;20035;-36
2021/08/15 03:27:00;;;;;;;0.80;0.70;;;21.70;60.30;;;;;;5084571;28;20039;-35
2021/08/15 03:29:26;;;;;;;1.48;0.77;;;21.70;60.40;;;;;;5084822;28;20051;-36
2021/08/15 03:31:53;;;;;;;0.85;0.82;;;21.80;60.40;;;;;;5085002;28;20142;-35
2021/08/15 03:34:19;;;;;;;1.00;0.90;;;21.80;60.40;;;;;;5084669;28;20052;-36
2021/08/15 03:36:46;;;;;;;0.82;0.82;;;21.80;60.50;;;;;;5066510;28;20092;-36
2021/08/15 03:39:13;;;;;;;1.08;0.90;;;21.80;60.60;;;;;;5064711;28;20147;-36
2021/08/15 03:41:39;;;;;;;1.10;1.00;;;21.80;61.20;;;;;;5064640;28;20100;-36
2021/08/15 03:44:05;;;;;;;0.60;0.60;;;21.80;60.50;;;;;;5064773;28;20029;-36
2021/08/15 03:46:32;;;;;;;0.85;0.85;;;21.80;60.60;;;;;;5084660;28;20674;-36
2021/08/15 03:48:58;;;;;;;1.13;0.95;;;21.90;61.40;;;;;;5066668;28;20020;-36
2021/08/15 03:51:24;;;;;;;1.05;0.95;;;21.90;60.60;;;;;;5084083;28;20032;-36
2021/08/15 03:53:50;;;;;;;0.90;0.80;;;21.90;60.60;;;;;;5084505;28;20025;-36
2021/08/15 03:56:16;;;;;;;0.85;0.70;;;21.90;61.40;;;;;;5084512;28;20449;-36
2021/08/15 03:58:42;;;;;;;1.02;0.93;;;21.90;60.60;;;;;;5064856;28;20040;-36
2021/08/15 04:01:08;;;;;;;1.08;0.98;;;21.90;60.50;;;;;;5064202;28;20021;-36
2021/08/15 04:03:35;;;;;;;1.00;0.80;;;21.90;60.60;;;;;;5064384;28;20025;-36
2021/08/15 04:06:07;;;;;;;1.10;0.98;;;21.90;60.60;;;;;;5064132;28;20045;-36
2021/08/15 04:08:33;;;;;;;1.00;0.93;;;22.00;60.60;;;;;;5064427;28;20049;-36
2021/08/15 04:10:59;;;;;;;1.00;0.90;;;22.00;60.70;;;;;;5063961;28;20028;-36
2021/08/15 04:13:25;;;;;;;1.10;1.00;;;22.00;60.70;;;;;;5076317;28;20092;-36
2021/08/15 04:15:52;;;;;;;0.80;0.80;;;22.00;60.60;;;;;;5084375;28;20118;-36
2021/08/15 04:18:18;;;;;;;0.85;0.80;;;22.00;60.60;;;;;;5084094;28;20024;-36
2021/08/15 04:20:44;;;;;;;1.30;1.00;;;22.00;60.60;;;;;;5083669;28;20370;-36
2021/08/15 04:23:10;;;;;;;1.10;1.00;;;22.00;60.60;;;;;;5084218;28;20012;-36
2021/08/15 04:25:36;;;;;;;1.42;1.08;;;22.00;60.70;;;;;;5083714;28;20683;-36
2021/08/15 04:28:03;;;;;;;1.52;0.90;;;22.10;60.80;;;;;;5069801;28;20044;-35
2021/08/15 04:30:29;;;;;;;0.90;0.90;;;22.10;60.80;;;;;;5064209;28;20025;-36
2021/08/15 04:32:55;;;;;;;1.63;1.00;;;22.10;60.80;;;;;;5083746;28;20059;-36
2021/08/15 04:35:22;;;;;;;0.88;0.88;;;22.10;60.80;;;;;;5083761;28;20183;-36
2021/08/15 04:37:48;;;;;;;0.88;0.82;;;22.10;60.80;;;;;;5065990;28;20029;-36
2021/08/15 04:40:14;;;;;;;1.25;0.90;;;22.10;60.70;;;;;;5083434;28;20111;-36
2021/08/15 04:42:40;;;;;;;1.02;0.93;;;22.10;60.80;;;;;;5077452;28;20111;-36
2021/08/15 04:45:07;;;;;;;0.80;0.80;;;22.10;60.80;;;;;;5063446;28;20024;-36
2021/08/15 04:47:33;;;;;;;0.80;0.80;;;22.10;60.80;;;;;;5063175;28;20065;-35
2021/08/15 04:50:01;;;;;;;1.43;1.10;;;22.10;60.80;;;;;;5063273;28;20018;-36
2021/08/15 04:52:27;;;;;;;1.10;1.00;;;22.10;60.80;;;;;;5063192;28;20285;-36
2021/08/15 04:54:53;;;;;;;1.10;0.95;;;22.10;60.90;;;;;;5063297;28;20033;-35
2021/08/15 04:57:19;;;;;;;0.95;0.90;;;22.20;60.80;;;;;;5071507;28;20050;-36
2021/08/15 04:59:45;;;;;;;1.05;0.90;;;22.20;61.60;;;;;;5083316;28;20103;-36
2021/08/15 05:02:11;;;;;;;1.05;0.75;;;22.20;60.80;;;;;;5082893;28;20025;-36
2021/08/15 05:04:38;;;;;;;0.93;0.80;;;22.20;60.70;;;;;;5082337;28;20032;-36
2021/08/15 05:07:04;;;;;;;1.20;0.80;;;22.20;60.70;;;;;;5083070;28;20063;-36
2021/08/15 05:09:30;;;;;;;1.35;0.90;;;22.20;60.70;;;;;;5083237;28;20025;-36
2021/08/15 05:11:56;;;;;;;1.40;0.90;;;22.20;60.70;;;;;;5082668;28;20032;-36
2021/08/15 05:14:22;;;;;;;0.80;0.80;;;22.20;60.70;;;;;;5083184;28;20040;-36
2021/08/15 05:16:48;;;;;;;0.95;0.93;;;22.20;60.70;;;;;;5082917;28;20028;-36
2021/08/15 05:19:15;;;;;;;1.02;0.93;;;22.20;60.70;;;;;;5082973;28;20029;-36
2021/08/15 05:21:41;;;;;;;1.08;0.98;;;22.20;60.80;;;;;;5082845;28;20033;-36
2021/08/15 05:24:07;;;;;;;0.85;0.85;;;22.20;60.90;;;;;;5082743;28;20042;-36
2021/08/15 05:26:33;;;;;;;1.23;1.13;;;22.20;60.90;;;;;;5081106;28;20098;-36
2021/08/15 05:28:59;;;;;;;1.13;1.02;;;22.20;61.00;;;;;;5044967;28;20028;-36
2021/08/15 05:31:25;;;;;;;1.20;0.90;;;22.20;61.10;;;;;;5062571;28;20032;-36
2021/08/15 05:33:51;;;;;;;1.20;1.10;;;22.20;61.20;;;;;;5065243;28;20017;-35
2021/08/15 05:36:18;;;;;;;1.20;1.10;;;22.20;61.20;;;;;;5077675;28;20028;-36
2021/08/15 05:38:44;;;;;;;1.15;1.05;;;22.30;61.30;;;;;;5082747;28;20036;-36
2021/08/15 05:41:10;;;;;;;1.75;0.95;;;22.30;61.20;;;;;;5082295;28;20028;-36
2021/08/15 05:43:36;;;;;;;0.98;0.88;;;22.20;61.10;;;;;;5068808;28;20618;-36
2021/08/15 05:46:02;;;;;;;1.10;1.00;;;22.30;61.00;;;;;;5062500;28;20025;-36
2021/08/15 05:48:28;;;;;;;1.63;1.10;;;22.30;60.90;;;;;;5062760;28;20667;-36
2021/08/15 05:50:55;;;;;;;1.10;1.00;;;22.30;60.90;;;;;;5062179;28;20020;-36
2021/08/15 05:53:21;;;;;;;1.73;1.00;;;22.30;60.80;;;;;;5062598;28;20036;-36
2021/08/15 05:55:47;;;;;;;0.88;0.88;;;22.30;60.70;;;;;;5062490;28;20116;-36
2021/08/15 05:58:13;;;;;;;1.13;0.90;;;22.30;60.70;;;;;;5077828;28;20056;-36
2021/08/15 06:00:39;;;;;;;1.10;1.00;;;22.30;60.80;;;;;;5077750;28;20028;-36
2021/08/15 06:03:05;;;;;;;1.25;1.02;;;22.30;61.00;;;;;;5044408;28;20028;-36
2021/08/15 06:05:31;;;;;;;1.10;0.90;;;22.30;61.10;;;;;;5062449;28;20374;-36
2021/08/15 06:07:57;;;;;;;1.38;1.20;;;22.30;61.20;;;;;;5062390;28;20036;-36
2021/08/15 06:10:24;;;;;;;1.13;1.00;;;22.30;61.20;;;;;;5062024;28;20448;-36
2021/08/15 06:12:50;;;;;;;1.23;1.10;;;22.30;61.30;;;;;;5069597;28;20759;-36
2021/08/15 06:15:16;;;;;;;1.20;1.10;;;22.30;61.30;;;;;;5084327;28;20029;-36
2021/08/15 06:17:42;;;;;;;3.30;1.10;;;22.30;61.30;;;;;;5086362;28;20480;-36
2021/08/15 06:20:09;;;;;;;1.13;1.02;;;22.30;61.30;;;;;;5086576;28;20029;-36
2021/08/15 06:22:45;;;;;;;1.00;0.90;;;22.30;61.30;;;;;;5086049;28;20029;-35
2021/08/15 06:25:13;;;;;;;1.10;1.00;;;22.30;61.30;;;;;;5086220;28;20131;-36
2021/08/15 06:27:43;;;;;;;;;;;22.30;61.20;;;;;;5075955;28;20037;-36
2021/08/15 06:30:13;;;;;;;1.00;0.90;;;22.30;61.10;;;;;;5067161;28;19943;-36
2021/08/15 06:32:50;;;;;;;1.65;1.00;;;22.30;61.10;;;;;;5065935;28;20079;-36
2021/08/15 06:35:21;;;;;;;1.10;1.00;;;22.30;60.90;;;;;;5066135;28;20772;-36
2021/08/15 06:37:47;;;;;;;0.98;0.90;;;22.30;60.80;;;;;;5066071;28;20033;-36
2021/08/15 06:40:15;;;;;;;1.00;0.90;;;22.30;60.80;;;;;;5065725;28;20025;-36
2021/08/15 06:42:41;;;;;;;1.20;1.10;;;22.40;60.90;;;;;;5072013;28;20055;-35
2021/08/15 06:45:08;;;;;;;1.50;0.93;;;22.30;61.00;;;;;;5085864;28;20021;-38
2021/08/15 06:47:34;;;;;;;1.08;0.95;;;22.40;61.10;;;;;;5067572;28;20072;-36
2021/08/15 06:50:02;;;;;;;1.10;0.98;;;22.40;61.10;;;;;;5085793;28;20024;-36
2021/08/15 06:52:30;;;;;;;1.27;1.10;;;22.40;61.20;;;;;;5085357;28;20032;-36
2021/08/15 06:54:57;;;;;;;1.00;0.80;;;22.40;61.30;;;;;;5085807;28;20111;-36
2021/08/15 06:57:23;;;;;;;1.20;1.10;;;22.40;61.40;;;;;;5085441;28;20033;-36
2021/08/15 06:59:49;;;;;;;1.15;1.05;;;22.40;61.40;;;;;;5085390;28;20040;-36
2021/08/15 07:02:15;;;;;;;1.23;1.00;;;22.30;61.30;;;;;;5085371;28;20028;-36
2021/08/15 07:04:42;;;;;;;1.08;0.90;;;22.40;61.40;;;;;;5085581;28;20025;-36
2021/08/15 07:07:08;;;;;;;1.00;0.98;;;22.40;61.40;;;;;;5085341;28;20580;-36
2021/08/15 07:09:34;;;;;;;1.35;1.10;;;22.40;61.30;;;;;;5085604;28;20017;-36
2021/08/15 07:12:00;;;;;;;0.98;0.88;;;22.40;61.30;;;;;;5085123;28;20547;-36
2021/08/15 07:14:28;;;;;;;1.20;1.10;;;22.40;61.20;;;;;;5085504;28;20020;-36
2021/08/15 07:16:56;;;;;;;1.15;1.05;;;22.40;61.10;;;;;;5085246;28;20036;-36
2021/08/15 07:19:23;;;;;;;1.10;1.00;;;22.40;61.10;;;;;;5085175;28;20058;-36
2021/08/15 07:21:49;;;;;;;1.30;1.20;;;22.40;61.00;;;;;;5084876;28;20036;-36
2021/08/15 07:24:16;;;;;;;1.30;1.20;;;22.30;60.90;;;;;;5085285;28;20370;-36
2021/08/15 07:26:42;;;;;;;2.00;1.30;;;22.40;61.00;;;;;;5080951;28;20032;-36
2021/08/15 07:29:08;;;;;;;1.08;1.00;;;22.40;61.00;;;;;;5065067;28;20021;-36
2021/08/15 07:31:34;;;;;;;1.08;0.98;;;22.40;61.10;;;;;;5066178;28;20112;-36
2021/08/15 07:34:00;;;;;;;1.10;1.00;;;22.40;61.10;;;;;;5082927;28;20043;-36
2021/08/15 07:36:26;;;;;;;1.13;1.02;;;22.40;61.20;;;;;;5085160;28;20020;-36
2021/08/15 07:38:53;;;;;;;1.30;1.05;;;22.40;61.20;;;;;;5084778;28;20645;-36
2021/08/15 07:41:19;;;;;;;1.17;1.08;;;22.40;61.20;;;;;;5081148;28;20062;-36
2021/08/15 07:43:45;;;;;;;2.50;1.02;;;22.40;61.20;;;;;;5069627;28;20055;-36
2021/08/15 07:46:14;;;;;;;1.70;1.15;;;22.40;61.20;;;;;;5064590;28;20024;-36
2021/08/15 07:48:41;;;;;;;0.90;0.90;;;22.40;61.20;;;;;;5064596;28;20029;-36
2021/08/15 07:51:07;;;;;;;3.00;1.00;;;22.40;61.20;;;;;;5064740;28;20033;-36
2021/08/15 07:53:33;;;;;;;1.30;1.00;;;22.40;61.20;;;;;;5064378;28;20048;-36
2021/08/15 07:55:59;;;;;;;1.50;1.10;;;22.40;61.10;;;;;;5064697;28;20032;-36
2021/08/15 07:58:26;;;;;;;1.05;0.95;;;22.40;61.10;;;;;;5081729;28;20105;-36
2021/08/15 08:00:52;;;;;;;1.30;1.20;;;22.40;61.90;;;;;;5084794;28;20704;-36
2021/08/15 08:03:18;;;;;;;0.87;0.80;;;22.40;61.00;;;;;;5084404;28;20032;-36
2021/08/15 08:05:45;;;;;;;1.27;1.17;;;22.40;61.00;;;;;;5084557;28;20295;-35
2021/08/15 08:08:11;;;;;;;1.70;0.90;;;22.40;61.00;;;;;;5066339;28;20044;-36
2021/08/15 08:10:37;;;;;;;1.20;1.10;;;22.40;61.00;;;;;;5084253;28;20265;-36
2021/08/15 08:13:06;;;;;;;1.10;1.00;;;22.40;61.10;;;;;;5066228;28;20092;-36
2021/08/15 08:15:32;;;;;;;1.05;0.95;;;22.40;61.10;;;;;;5084511;28;20059;-36
2021/08/15 08:17:58;;;;;;;1.10;1.00;;;22.40;61.20;;;;;;5065959;28;20531;-36
2021/08/15 08:20:24;;;;;;;1.10;1.00;;;22.40;61.20;;;;;;5084280;28;20021;-36
2021/08/15 08:22:50;;;;;;;1.08;0.98;;;22.40;61.20;;;;;;5083921;28;20032;-35
2021/08/15 08:25:17;;;;;;;1.27;1.17;;;22.40;61.20;;;;;;5066282;28;20024;-36
2021/08/15 08:27:43;;;;;;;1.15;1.00;;;22.40;61.30;;;;;;5074959;28;20051;-36
2021/08/15 08:30:10;;;;;;;1.02;0.93;;;22.40;61.30;;;;;;5063839;28;20031;-36
2021/08/15 08:32:37;;;;;;;1.35;1.25;;;22.40;61.30;;;;;;5063829;28;20037;-36
2021/08/15 08:35:03;;;;;;;0.70;0.70;;;22.40;61.20;;;;;;5063888;28;20033;-36
2021/08/15 08:37:30;;;;;;;1.15;1.05;;;22.40;61.10;;;;;;5045779;28;20033;-36
2021/08/15 08:39:59;;;;;;;1.10;1.00;;;22.40;61.10;;;;;;5063948;28;20032;-36
2021/08/15 08:42:27;;;;;;;1.30;1.20;;;22.40;61.10;;;;;;5067585;28;20071;-36
2021/08/15 08:44:56;;;;;;;1.38;1.27;;;22.40;61.20;;;;;;5083784;28;20107;-36
2021/08/15 08:47:22;;;;;;;1.02;0.93;;;22.40;61.10;;;;;;5066182;28;20044;-36
2021/08/15 08:49:48;;;;;;;1.30;1.20;;;22.40;61.10;;;;;;5083561;28;20024;-36
2021/08/15 08:52:15;;;;;;;1.10;1.00;;;22.40;61.10;;;;;;5065415;28;20050;-35
2021/08/15 08:54:41;;;;;;;1.30;1.10;;;22.40;61.10;;;;;;5083526;28;20092;-36
2021/08/15 08:57:07;;;;;;;1.38;1.10;;;22.40;61.10;;;;;;5077084;28;20033;-36
2021/08/15 08:59:37;;;;;;;1.20;1.10;;;22.40;61.20;;;;;;5063350;28;20049;-35
2021/08/15 09:02:04;;;;;;;0.90;0.90;;;22.40;61.20;;;;;;5063258;28;20585;-36
2021/08/15 09:04:30;;;;;;;0.93;0.90;;;22.40;61.30;;;;;;5063382;28;20021;-36
2021/08/15 09:07:00;;;;;;;1.17;1.00;;;22.40;61.20;;;;;;5063318;28;20040;-36
2021/08/15 09:09:26;;;;;;;0.90;0.80;;;22.40;61.30;;;;;;5029560;28;20033;-36
2021/08/15 09:11:53;;;;;;;1.02;0.95;;;22.40;61.30;;;;;;5063028;28;20029;-35
2021/08/15 09:14:26;;;;;;;1.20;1.05;;;22.40;61.30;;;;;;5048325;28;20035;-36
2021/08/15 09:17:06;;;;;;;1.08;0.98;;;22.40;61.30;;;;;;5083223;28;20028;-36
2021/08/15 09:19:35;;;;;;;1.05;0.95;;;22.40;61.30;;;;;;5083233;28;20025;-35
2021/08/15 09:22:12;;;;;;;0.93;0.85;;;22.40;61.20;;;;;;5082869;28;20024;-36
2021/08/15 09:24:49;;;;;;;1.20;1.10;;;22.40;61.10;;;;;;5082884;28;20058;-36
2021/08/15 09:27:35;;;;;;;0.70;0.70;;;22.40;61.10;;;;;;5075271;28;20029;-36
2021/08/15 09:30:16;;;;;;;1.10;1.00;;;22.40;61.10;;;;;;5066240;28;20479;-36
2021/08/15 09:32:45;;;;;;;1.10;0.95;;;22.40;61.10;;;;;;5062837;28;20449;-36
2021/08/15 09:35:15;;;;;;;1.58;1.10;;;22.40;61.10;;;;;;5062995;28;20027;-36
2021/08/15 09:37:42;;;;;;;1.20;1.10;;;22.40;61.10;;;;;;5045761;28;20032;-36
2021/08/15 09:40:24;;;;;;;1.10;1.00;;;22.40;61.10;;;;;;5062822;28;20092;-36
2021/08/15 09:42:50;;;;;;;1.20;1.10;;;22.40;61.10;;;;;;5070020;28;20016;-36
2021/08/15 09:45:31;;;;;;;0.93;0.82;;;22.40;61.10;;;;;;5082622;28;20033;-36
2021/08/15 09:47:57;;;;;;;1.75;0.90;;;22.40;61.20;;;;;;5081049;28;20044;-36
2021/08/15 09:50:23;;;;;;;1.20;1.10;;;22.40;61.30;;;;;;5079950;28;20492;-36
2021/08/15 09:52:50;;;;;;;1.13;1.02;;;22.40;61.30;;;;;;5082578;28;20116;-36
2021/08/15 09:55:16;;;;;;;1.55;1.30;;;22.40;61.40;;;;;;5082526;28;20109;-36
2021/08/15 09:57:42;;;;;;;1.33;0.90;;;22.40;61.40;;;;;;5082831;28;20024;-36
2021/08/15 10:00:20;;;;;;;1.27;1.08;;;22.40;61.40;;;;;;5068906;28;20032;-36
2021/08/15 10:02:49;;;;;;;1.20;1.10;;;22.40;61.40;;;;;;5062289;28;20088;-36
2021/08/15 10:05:16;;;;;;;1.10;1.00;;;22.40;61.40;;;;;;5044880;28;20080;-36
2021/08/15 10:07:43;;;;;;;1.33;1.00;;;22.40;61.40;;;;;;5062493;28;20144;-36
2021/08/15 10:10:12;;;;;;;1.08;0.98;;;22.40;61.40;;;;;;5062373;28;20032;-35
2021/08/15 10:12:39;;;;;;;1.67;1.10;;;22.40;61.40;;;;;;5050198;28;20035;-35
2021/08/15 10:15:11;;;;;;;1.33;1.20;;;22.40;61.50;;;;;;5082304;28;20024;-36
2021/08/15 10:17:37;;;;;;;1.20;1.10;;;22.40;61.50;;;;;;5065812;28;20132;-36
2021/08/15 10:20:05;;;;;;;2.35;1.05;;;22.40;61.60;;;;;;5064777;28;20020;-36
2021/08/15 10:22:32;;;;;;;1.80;1.10;;;22.40;61.50;;;;;;5082186;28;20032;-36
2021/08/15 10:25:01;;;;;;;2.35;1.30;;;22.40;61.40;;;;;;5064451;28;20028;-36
2021/08/15 10:27:39;;;;;;;1.45;1.20;;;22.40;61.40;;;;;;5082280;28;20151;-36
2021/08/15 10:30:20;;;;;;;1.30;0.90;;;22.40;61.30;;;;;;5082375;28;20040;-36
2021/08/15 10:32:55;;;;;;;0.80;0.80;;;22.40;61.30;;;;;;5082217;28;20029;-36
2021/08/15 10:35:31;;;;;;;1.00;0.90;;;22.40;61.30;;;;;;5079350;28;20017;-38
2021/08/15 10:38:01;;;;;;;1.33;1.23;;;22.40;61.40;;;;;;5064285;28;20664;-36
2021/08/15 10:40:48;;;;;;;1.20;1.10;;;22.40;61.40;;;;;;5082333;28;20025;-36
2021/08/15 10:43:23;;;;;;;1.33;1.20;;;22.40;61.40;;;;;;5082020;28;20055;-36
2021/08/15 10:46:11;;;;;;;1.45;1.20;;;22.40;61.40;;;;;;5082205;28;20035;-36
2021/08/15 10:49:03;;;;;;;1.30;1.15;;;22.40;61.40;;;;;;5082374;28;20140;-36
2021/08/15 10:51:50;;;;;;;1.30;1.20;;;22.40;61.40;;;;;;5082142;28;20024;-36
2021/08/15 10:54:29;;;;;;;0.98;0.88;;;22.40;61.40;;;;;;5082097;28;20028;-36
2021/08/15 10:56:59;;;;;;;1.30;1.20;;;22.40;61.50;;;;;;5082121;28;20032;-36
2021/08/15 10:59:39;;;;;;;1.27;1.17;;;22.40;61.50;;;;;;5082055;28;20092;-35
2021/08/15 11:02:18;;;;;;;1.00;0.90;;;22.40;61.40;;;;;;5085255;28;20028;-36
2021/08/15 11:05:01;;;;;;;1.30;1.20;;;22.40;61.50;;;;;;5085776;28;20017;-36
2021/08/15 11:07:34;;;;;;;1.23;1.13;;;22.40;61.50;;;;;;5085556;28;20181;-36
2021/08/15 11:10:00;;;;;;;1.20;1.08;;;22.40;61.40;;;;;;5085785;28;20021;-36
2021/08/15 11:12:26;;;;;;;1.30;1.10;;;22.40;61.50;;;;;;5085732;28;20024;-36
2021/08/15 11:14:53;;;;;;;1.70;1.08;;;22.40;61.40;;;;;;5085618;28;20027;-36
2021/08/15 11:17:19;;;;;;;1.20;1.10;;;22.40;61.50;;;;;;5085897;28;20033;-36
2021/08/15 11:19:46;;;;;;;1.20;1.10;;;22.40;61.50;;;;;;5085376;28;20051;-36
2021/08/15 11:22:21;;;;;;;1.58;1.27;;;22.40;61.50;;;;;;5085037;28;20025;-36
2021/08/15 11:24:57;;;;;;;1.20;1.10;;;22.40;61.40;;;;;;5085238;28;20044;-36
2021/08/15 11:27:27;;;;;;;1.13;1.02;;;22.40;61.50;;;;;;5085468;28;20100;-36
2021/08/15 11:29:53;;;;;;;0.98;0.93;;;22.40;61.50;;;;;;5084524;28;20024;-37
2021/08/15 11:32:30;;;;;;;0.88;0.85;;;22.40;61.40;;;;;;5065597;28;20045;-36
2021/08/15 11:35:05;;;;;;;1.10;0.95;;;22.40;61.40;;;;;;5065118;28;20029;-36
2021/08/15 11:37:36;;;;;;;1.00;0.90;;;22.40;61.40;;;;;;5065180;28;20032;-36
2021/08/15 11:40:21;;;;;;;1.25;1.15;;;22.40;61.40;;;;;;5065223;28;20025;-36
2021/08/15 11:43:08;;;;;;;1.13;0.90;;;22.40;61.40;;;;;;5072182;28;20036;-36
2021/08/15 11:45:39;;;;;;;1.30;1.20;;;22.40;61.30;;;;;;5085120;28;20054;-36
2021/08/15 11:48:07;;;;;;;1.73;0.98;;;22.40;61.30;;;;;;5084915;28;20044;-36
2021/08/15 11:50:34;;;;;;;1.20;1.10;;;22.40;61.30;;;;;;5085029;28;20036;-36
2021/08/15 11:53:00;;;;;;;1.20;1.08;;;22.40;61.40;;;;;;5085066;28;20036;-36
2021/08/15 11:55:28;;;;;;;0.93;0.88;;;22.40;61.30;;;;;;5081629;28;20087;-36
2021/08/15 11:57:56;;;;;;;1.30;1.20;;;22.40;61.30;;;;;;5084983;28;20028;-36
2021/08/15 12:00:30;;;;;;;1.20;1.10;;;22.40;61.30;;;;;;5069235;28;20025;-36
2021/08/15 12:03:10;;;;;;;0.80;0.70;;;22.40;61.40;;;;;;5064900;28;20477;-36
2021/08/15 12:05:45;;;;;;;1.42;1.30;;;22.40;61.50;;;;;;5064768;28;20090;-36
2021/08/15 12:08:13;;;;;;;1.20;1.02;;;22.40;61.40;;;;;;5046625;28;20037;-36
2021/08/15 12:10:47;;;;;;;1.13;1.02;;;22.40;61.50;;;;;;5064912;28;20020;-36
2021/08/15 12:13:32;;;;;;;1.00;0.90;;;22.40;61.50;;;;;;5074757;28;20059;-36
2021/08/15 12:15:58;;;;;;;1.10;1.00;;;22.40;61.40;;;;;;5084474;28;20024;-36
2021/08/15 12:18:47;;;;;;;1.10;1.00;;;22.40;61.40;;;;;;5084399;28;20190;-35
2021/08/15 12:21:16;;;;;;;1.10;0.98;;;22.40;61.50;;;;;;5084370;28;20452;-36
2021/08/15 12:23:59;;;;;;;0.80;0.80;;;22.40;61.50;;;;;;5084131;28;20025;-36
2021/08/15 12:26:26;;;;;;;1.20;1.10;;;22.40;61.40;;;;;;5084333;28;20059;-36
2021/08/15 12:29:06;;;;;;;1.27;1.02;;;22.40;61.40;;;;;;5084229;28;20481;-36
2021/08/15 12:31:34;;;;;;;1.23;1.13;;;22.50;61.50;;;;;;5084346;28;20082;-36
2021/08/15 12:34:17;;;;;;;1.08;0.98;;;22.40;61.40;;;;;;5084307;28;20028;-36
2021/08/15 12:36:51;;;;;;;1.10;1.00;;;22.50;61.50;;;;;;5084064;28;20056;-36
2021/08/15 12:39:18;;;;;;;1.23;1.13;;;22.50;61.50;;;;;;5083122;28;20024;-36
2021/08/15 12:41:58;;;;;;;1.42;1.10;;;22.50;61.50;;;;;;5046644;28;20393;-36
2021/08/15 12:44:30;;;;;;;1.20;1.10;;;22.50;61.50;;;;;;5063958;28;20079;-36
2021/08/15 12:46:57;;;;;;;1.30;1.20;;;22.50;61.60;;;;;;5063552;28;20056;-36
2021/08/15 12:49:33;;;;;;;1.13;1.02;;;22.50;61.60;;;;;;5063910;28;20033;-36
2021/08/15 12:52:21;;;;;;;1.30;1.20;;;22.40;61.60;;;;;;5063919;28;20481;-36
2021/08/15 12:55:29;;;;;;;1.30;1.20;;;22.50;61.70;;;;;;5063590;28;20033;-35